Ama, Louisiana
Current Conditions -  °F | °C
As of 9:53 AM on Thursday 27 Nov 2014 (Local Time) from KMSY Reporting Station
Clear Clear  
Wind Chill: 55°   Ceiling: Unl
Heat Index: 55°   Visibility: 10mi
Dew Point: 34°   Wind: 18mph
Humidity: 45%   Direction: 10°N
Pressure: 30.45"   Gusts: NA
Location:  29.95°N, 90.3°W
Report Text: KMSY 271553Z 01016KT 10SM CLR 13/01 A3045 RMK AO2 SLP315 T01280011
Loading
Personal Weather Stations






























Interactive Weather Map New forecast layout! Learn more

10-Day Weather Forecast

Advertisements
Track Severe Weather on mobile